Mr Thomas — WDD7163 — position and weather

sailwx.info

Track history (hours):
 
Tides and Currents Weather Stations Pressure Air Temp Water Temp Dewpoint Dewpoint Depression Visibility Wind Speed Wind Dir Waves Ship Positions

Mr Thomas

Owner: CENTRAL BOAT RENTALS, BERWICK, LA. More information available from US FCC via Universal Licensing System and Coast Guard Vessel Documentation Center.

Last reported at 2014-Oct-20 18:27 UTC. Time now 2014-Oct-22 01:41 UTC.
Position N 29°36' W 090°58'.

Length 21 m.

Type: Tug. MMSI: 367182730.

Date/timePositionNaut miles runAvg speedWind from/ knotsBaromVisibWave heightAir tempDewpointWater temp
2014-Oct-20 18:27N 29°36' W 090°58'5 5.2
2014-Oct-20 17:33N 29°37' W 091°03'5 5.1
2014-Oct-20 16:33N 29°40' W 091°08'2 2.4
2014-Oct-20 15:33N 29°41' W 091°11'0 0.0
2014-Oct-20 14:33N 29°41' W 091°11'0 0.0
2014-Oct-20 13:31N 29°41' W 091°11'0 0.0
2014-Oct-20 12:31N 29°41' W 091°11'0 0.0
2014-Oct-20 11:31N 29°41' W 091°11'0 0.0
2014-Oct-20 10:31N 29°41' W 091°11'0 0.0
2014-Oct-20 09:31N 29°41' W 091°11'0 0.0
2014-Oct-20 08:31N 29°41' W 091°11'0 0.0
2014-Oct-20 07:31N 29°41' W 091°11'0 0.0
2014-Oct-20 06:31N 29°41' W 091°11'0 0.0
2014-Oct-20 05:31N 29°41' W 091°11'0 0.0
2014-Oct-20 04:31N 29°41' W 091°11'0 0.0
2014-Oct-20 03:31N 29°41' W 091°11'0 0.0
2014-Oct-20 02:31N 29°41' W 091°11'0 0.0
2014-Oct-20 01:31N 29°41' W 091°11'0 0.0
2014-Oct-20 00:31N 29°41' W 091°11'0 0.0
2014-Oct-19 23:31N 29°41' W 091°11'0 0.0
2014-Oct-19 22:31N 29°41' W 091°11'0 0.0
2014-Oct-19 21:31N 29°41' W 091°11'0 0.0
2014-Oct-19 20:31N 29°41' W 091°11'0 0.0
2014-Oct-19 19:31N 29°41' W 091°11'0 0.0
2014-Oct-19 18:31N 29°41' W 091°11'0 0.0
2014-Oct-19 17:31N 29°41' W 091°11'0 0.0
2014-Oct-19 16:31N 29°41' W 091°11'0 0.0
2014-Oct-19 15:31N 29°41' W 091°11'0 0.0
2014-Oct-19 14:31N 29°41' W 091°11'0 0.0
2014-Oct-19 13:31N 29°41' W 091°11'0 0.0
2014-Oct-19 12:31N 29°41' W 091°11'0 0.0
2014-Oct-19 11:31N 29°41' W 091°11'0 0.0
2014-Oct-19 10:28N 29°41' W 091°11'0 0.0
2014-Oct-19 09:31N 29°41' W 091°11'0 0.0
2014-Oct-19 08:31N 29°41' W 091°11'0 0.0
2014-Oct-19 07:31N 29°41' W 091°11'0 0.0
2014-Oct-19 06:31N 29°41' W 091°11'0 0.0
2014-Oct-19 05:31N 29°41' W 091°11'0 0.0
2014-Oct-19 04:31N 29°41' W 091°11'0 0.0
2014-Oct-19 03:31N 29°41' W 091°11'0 0.0
2014-Oct-19 02:31N 29°41' W 091°11'0 0.0
2014-Oct-19 01:31N 29°41' W 091°11'0 0.0
2014-Oct-19 00:31N 29°41' W 091°11'1 0.6
2014-Oct-18 23:33N 29°41' W 091°11'2 1.9
2014-Oct-18 22:33N 29°41' W 091°13'0 0.0
2014-Oct-18 21:33N 29°41' W 091°13'0 0.0
2014-Oct-18 20:33N 29°41' W 091°13'3 3.2
2014-Oct-18 19:33N 29°39' W 091°17'6 5.7
2014-Oct-18 18:33N 29°39' W 091°23'4 4.2
2014-Oct-18 17:33N 29°41' W 091°28'6 5.5
2014-Oct-18 16:29N 29°44' W 091°33'174 4.6
2014-Oct-17 02:31N 29°30' W 094°53'6 5.9
2014-Oct-17 01:33N 29°35' W 094°56'6 5.9
2014-Oct-17 00:33N 29°41' W 094°59'5 5.0
2014-Oct-16 23:34N 29°44' W 095°03'6 4.0
2014-Oct-16 22:10N 29°44' W 095°09'  
2014-Oct-14 00:18N 29°45' W 095°10'4 4.7
2014-Oct-13 23:27N 29°45' W 095°06'4 4.4
2014-Oct-13 22:33N 29°44' W 095°01'5 5.5
2014-Oct-13 21:33N 29°39' W 094°58'5 5.0
2014-Oct-13 20:34N 29°35' W 094°56'5 5.2
2014-Oct-13 19:33N 29°30' W 094°52'5 3.7
2014-Oct-13 18:18N 29°26' W 094°50'170 4.3
2014-Oct-12 02:28N 29°45' W 091°35'7 6.9
2014-Oct-12 01:28N 29°41' W 091°29'6 6.6
2014-Oct-12 00:33N 29°39' W 091°22'6 6.3
2014-Oct-11 23:33N 29°39' W 091°15'2 1.9
2014-Oct-11 22:31N 29°41' W 091°13'0 0.0
2014-Oct-11 21:31N 29°41' W 091°13'0 0.0
2014-Oct-11 20:34N 29°41' W 091°13'0 0.0
2014-Oct-11 19:31N 29°41' W 091°13'0 0.0
2014-Oct-11 18:34N 29°41' W 091°13'0 0.0
2014-Oct-11 17:31N 29°41' W 091°13'0 0.0
2014-Oct-11 16:34N 29°41' W 091°13'0 0.0
2014-Oct-11 15:34N 29°41' W 091°13'0 0.0
2014-Oct-11 14:31N 29°41' W 091°13'0 0.0
2014-Oct-11 13:34N 29°41' W 091°13'0 0.0
2014-Oct-11 12:34N 29°41' W 091°13'0 0.0
2014-Oct-11 11:31N 29°41' W 091°13'0 0.0
2014-Oct-11 10:34N 29°41' W 091°13'0 0.0
2014-Oct-11 09:34N 29°41' W 091°13'0 0.0
2014-Oct-11 08:34N 29°41' W 091°13'0 0.0
2014-Oct-11 07:34N 29°41' W 091°13'0 0.0
2014-Oct-11 06:34N 29°41' W 091°13'0 0.0
2014-Oct-11 05:34N 29°41' W 091°13'0 0.0
2014-Oct-11 04:34N 29°41' W 091°13'0 0.0
2014-Oct-11 03:34N 29°41' W 091°13'0 0.0
2014-Oct-11 02:34N 29°41' W 091°13'0 0.0
2014-Oct-11 01:34N 29°41' W 091°13'0 0.0
2014-Oct-11 00:34N 29°41' W 091°13'0 0.0
2014-Oct-10 23:34N 29°41' W 091°13'0 0.0
2014-Oct-10 22:34N 29°41' W 091°13'0 0.0
2014-Oct-10 21:34N 29°41' W 091°13'1 0.9
2014-Oct-10 20:33N 29°40' W 091°14'1 0.9
2014-Oct-10 19:33N 29°41' W 091°13'0 0.0
2014-Oct-10 18:33N 29°41' W 091°13'  
Track history (hours):
 
Tides and Currents Weather Stations Pressure Air Temp Water Temp Dewpoint Dewpoint Depression Visibility Wind Speed Wind Dir Waves Ship Positions

Mr Thomas

Owner: CENTRAL BOAT RENTALS, BERWICK, LA. More information available from US FCC via Universal Licensing System and Coast Guard Vessel Documentation Center.

Last reported at 2014-Oct-20 18:27 UTC. Time now 2014-Oct-22 01:41 UTC.
Position N 29°36' W 090°58'.

Length 21 m.

Type: Tug. MMSI: 367182730.

Date/timePositionNaut miles runAvg speedWind from/ knotsBaromVisibWave heightAir tempDewpointWater temp
2014-Oct-20 18:27N 29°36' W 090°58'5 5.2
2014-Oct-20 17:33N 29°37' W 091°03'5 5.1
2014-Oct-20 16:33N 29°40' W 091°08'2 2.4
2014-Oct-20 15:33N 29°41' W 091°11'0 0.0
2014-Oct-20 14:33N 29°41' W 091°11'0 0.0
2014-Oct-20 13:31N 29°41' W 091°11'0 0.0
2014-Oct-20 12:31N 29°41' W 091°11'0 0.0
2014-Oct-20 11:31N 29°41' W 091°11'0 0.0
2014-Oct-20 10:31N 29°41' W 091°11'0 0.0
2014-Oct-20 09:31N 29°41' W 091°11'0 0.0
2014-Oct-20 08:31N 29°41' W 091°11'0 0.0
2014-Oct-20 07:31N 29°41' W 091°11'0 0.0
2014-Oct-20 06:31N 29°41' W 091°11'0 0.0
2014-Oct-20 05:31N 29°41' W 091°11'0 0.0
2014-Oct-20 04:31N 29°41' W 091°11'0 0.0
2014-Oct-20 03:31N 29°41' W 091°11'0 0.0
2014-Oct-20 02:31N 29°41' W 091°11'0 0.0
2014-Oct-20 01:31N 29°41' W 091°11'0 0.0
2014-Oct-20 00:31N 29°41' W 091°11'0 0.0
2014-Oct-19 23:31N 29°41' W 091°11'0 0.0
2014-Oct-19 22:31N 29°41' W 091°11'0 0.0
2014-Oct-19 21:31N 29°41' W 091°11'0 0.0
2014-Oct-19 20:31N 29°41' W 091°11'0 0.0
2014-Oct-19 19:31N 29°41' W 091°11'0 0.0
2014-Oct-19 18:31N 29°41' W 091°11'0 0.0
2014-Oct-19 17:31N 29°41' W 091°11'0 0.0
2014-Oct-19 16:31N 29°41' W 091°11'0 0.0
2014-Oct-19 15:31N 29°41' W 091°11'0 0.0
2014-Oct-19 14:31N 29°41' W 091°11'0 0.0
2014-Oct-19 13:31N 29°41' W 091°11'0 0.0
2014-Oct-19 12:31N 29°41' W 091°11'0 0.0
2014-Oct-19 11:31N 29°41' W 091°11'0 0.0
2014-Oct-19 10:28N 29°41' W 091°11'0 0.0
2014-Oct-19 09:31N 29°41' W 091°11'0 0.0
2014-Oct-19 08:31N 29°41' W 091°11'0 0.0
2014-Oct-19 07:31N 29°41' W 091°11'0 0.0
2014-Oct-19 06:31N 29°41' W 091°11'0 0.0
2014-Oct-19 05:31N 29°41' W 091°11'0 0.0
2014-Oct-19 04:31N 29°41' W 091°11'0 0.0
2014-Oct-19 03:31N 29°41' W 091°11'0 0.0
2014-Oct-19 02:31N 29°41' W 091°11'0 0.0
2014-Oct-19 01:31N 29°41' W 091°11'0 0.0
2014-Oct-19 00:31N 29°41' W 091°11'1 0.6
2014-Oct-18 23:33N 29°41' W 091°11'2 1.9
2014-Oct-18 22:33N 29°41' W 091°13'0 0.0
2014-Oct-18 21:33N 29°41' W 091°13'0 0.0
2014-Oct-18 20:33N 29°41' W 091°13'3 3.2
2014-Oct-18 19:33N 29°39' W 091°17'6 5.7
2014-Oct-18 18:33N 29°39' W 091°23'4 4.2
2014-Oct-18 17:33N 29°41' W 091°28'6 5.5
2014-Oct-18 16:29N 29°44' W 091°33'174 4.6
2014-Oct-17 02:31N 29°30' W 094°53'6 5.9
2014-Oct-17 01:33N 29°35' W 094°56'6 5.9
2014-Oct-17 00:33N 29°41' W 094°59'5 5.0
2014-Oct-16 23:34N 29°44' W 095°03'6 4.0
2014-Oct-16 22:10N 29°44' W 095°09'  
2014-Oct-14 00:18N 29°45' W 095°10'4 4.7
2014-Oct-13 23:27N 29°45' W 095°06'4 4.4
2014-Oct-13 22:33N 29°44' W 095°01'5 5.5
2014-Oct-13 21:33N 29°39' W 094°58'5 5.0
2014-Oct-13 20:34N 29°35' W 094°56'5 5.2
2014-Oct-13 19:33N 29°30' W 094°52'5 3.7
2014-Oct-13 18:18N 29°26' W 094°50'170 4.3
2014-Oct-12 02:28N 29°45' W 091°35'7 6.9
2014-Oct-12 01:28N 29°41' W 091°29'6 6.6
2014-Oct-12 00:33N 29°39' W 091°22'6 6.3
2014-Oct-11 23:33N 29°39' W 091°15'2 1.9
2014-Oct-11 22:31N 29°41' W 091°13'0 0.0
2014-Oct-11 21:31N 29°41' W 091°13'0 0.0
2014-Oct-11 20:34N 29°41' W 091°13'0 0.0
2014-Oct-11 19:31N 29°41' W 091°13'0 0.0
2014-Oct-11 18:34N 29°41' W 091°13'0 0.0
2014-Oct-11 17:31N 29°41' W 091°13'0 0.0
2014-Oct-11 16:34N 29°41' W 091°13'0 0.0
2014-Oct-11 15:34N 29°41' W 091°13'0 0.0
2014-Oct-11 14:31N 29°41' W 091°13'0 0.0
2014-Oct-11 13:34N 29°41' W 091°13'0 0.0
2014-Oct-11 12:34N 29°41' W 091°13'0 0.0
2014-Oct-11 11:31N 29°41' W 091°13'0 0.0
2014-Oct-11 10:34N 29°41' W 091°13'0 0.0
2014-Oct-11 09:34N 29°41' W 091°13'0 0.0
2014-Oct-11 08:34N 29°41' W 091°13'0 0.0
2014-Oct-11 07:34N 29°41' W 091°13'0 0.0
2014-Oct-11 06:34N 29°41' W 091°13'0 0.0
2014-Oct-11 05:34N 29°41' W 091°13'0 0.0
2014-Oct-11 04:34N 29°41' W 091°13'0 0.0
2014-Oct-11 03:34N 29°41' W 091°13'0 0.0
2014-Oct-11 02:34N 29°41' W 091°13'0 0.0
2014-Oct-11 01:34N 29°41' W 091°13'0 0.0
2014-Oct-11 00:34N 29°41' W 091°13'0 0.0
2014-Oct-10 23:34N 29°41' W 091°13'0 0.0
2014-Oct-10 22:34N 29°41' W 091°13'0 0.0
2014-Oct-10 21:34N 29°41' W 091°13'1 0.9
2014-Oct-10 20:33N 29°40' W 091°14'1 0.9
2014-Oct-10 19:33N 29°41' W 091°13'0 0.0
2014-Oct-10 18:33N 29°41' W 091°13'  

Dump ship's entire track history